Nicolas Delmas — C6SF5 — position and weather

sailwx.info

Track history (hours):
 
Tides and Currents Weather Stations Pressure Air Temp Water Temp Dewpoint Dewpoint Depression Visibility Wind Speed Wind Dir Waves Ship Positions

Nicolas Delmas

Last reported at 2018-Aug-14 21:17 UTC. Time now 2018-Aug-17 11:41 UTC.
Position N 34°39' E 033°04'.

Length 196 m; draft 8.3 m.

Type: Cargo ship. MMSI: 311326000.

Date/timePositionNaut miles runAvg speedWind from/ knotsBaromVisibWave heightAir tempDewpointWater temp
2018-Aug-14 21:17N 34°39' E 033°04'2 7.2
2018-Aug-14 20:58N 34°39' E 033°01'0 0.9
2018-Aug-14 20:30N 34°39' E 033°01'0 0.0
2018-Aug-14 20:00N 34°39' E 033°01'0 0.0
2018-Aug-14 19:27N 34°39' E 033°01'0 0.0
2018-Aug-14 18:39N 34°39' E 033°01'0 0.1
2018-Aug-14 18:30N 34°39' E 033°01'0 0.0
2018-Aug-14 14:46N 34°39' E 033°01'0 1.2
2018-Aug-14 14:29N 34°39' E 033°01'10 1.7
2018-Aug-14 08:37N 34°34' E 033°12'1 7.5
2018-Aug-14 08:30N 34°35' E 033°11'52 1.6
2018-Aug-12 23:08N 34°11' E 034°07'2117.4
2018-Aug-12 21:56N 34°17' E 033°43'917.4
2018-Aug-12 21:27N 34°19' E 033°33'817.5
2018-Aug-12 21:00N 34°21' E 033°23'917.5
2018-Aug-12 20:31N 34°23' E 033°13'8316.3
2018-Aug-12 15:24N 35°14' E 031°54'  
2018-Aug-07 18:41N 34°39' E 033°14'315.8
2018-Aug-07 18:30N 34°39' E 033°11'713.3
2018-Aug-07 18:01N 34°39' E 033°03'2 3.1
2018-Aug-07 17:31N 34°39' E 033°01'0 0.0
2018-Aug-07 16:58N 34°39' E 033°01'0 0.0
2018-Aug-07 16:25N 34°39' E 033°01'0 0.0
2018-Aug-07 15:58N 34°39' E 033°01'0 0.0
2018-Aug-07 15:28N 34°39' E 033°01'0 0.0
2018-Aug-07 14:58N 34°39' E 033°01'0 0.0
2018-Aug-07 14:28N 34°39' E 033°01'0 0.0
2018-Aug-07 13:58N 34°39' E 033°01'0 0.0
2018-Aug-07 13:28N 34°39' E 033°01'0 0.0
2018-Aug-07 12:58N 34°39' E 033°01'0 0.0
2018-Aug-07 12:28N 34°39' E 033°01'0 0.0
2018-Aug-07 11:58N 34°39' E 033°01'0 0.0
2018-Aug-07 11:28N 34°39' E 033°01'0 0.0
2018-Aug-07 10:58N 34°39' E 033°01'0 0.7
2018-Aug-07 10:30N 34°39' E 033°01'2 4.9
2018-Aug-07 10:00N 34°39' E 033°04'1 2.4
2018-Aug-07 09:30N 34°39' E 033°06'0 0.5
2018-Aug-07 09:01N 34°38' E 033°06'816.4
2018-Aug-07 08:30N 34°35' E 033°15'12 0.2
2018-Aug-05 09:28N 34°25' E 033°09'711.4
2018-Aug-05 08:53N 34°26' E 033°01'514.3
2018-Aug-05 08:31N 34°28' E 032°55'917.4
2018-Aug-05 08:01N 34°30' E 032°44'  
Track history (hours):
 
Tides and Currents Weather Stations Pressure Air Temp Water Temp Dewpoint Dewpoint Depression Visibility Wind Speed Wind Dir Waves Ship Positions

Nicolas Delmas

Last reported at 2018-Aug-14 21:17 UTC. Time now 2018-Aug-17 11:41 UTC.
Position N 34°39' E 033°04'.

Length 196 m; draft 8.3 m.

Type: Cargo ship. MMSI: 311326000.

Date/timePositionNaut miles runAvg speedWind from/ knotsBaromVisibWave heightAir tempDewpointWater temp
2018-Aug-14 21:17N 34°39' E 033°04'2 7.2
2018-Aug-14 20:58N 34°39' E 033°01'0 0.9
2018-Aug-14 20:30N 34°39' E 033°01'0 0.0
2018-Aug-14 20:00N 34°39' E 033°01'0 0.0
2018-Aug-14 19:27N 34°39' E 033°01'0 0.0
2018-Aug-14 18:39N 34°39' E 033°01'0 0.1
2018-Aug-14 18:30N 34°39' E 033°01'0 0.0
2018-Aug-14 14:46N 34°39' E 033°01'0 1.2
2018-Aug-14 14:29N 34°39' E 033°01'10 1.7
2018-Aug-14 08:37N 34°34' E 033°12'1 7.5
2018-Aug-14 08:30N 34°35' E 033°11'52 1.6
2018-Aug-12 23:08N 34°11' E 034°07'2117.4
2018-Aug-12 21:56N 34°17' E 033°43'917.4
2018-Aug-12 21:27N 34°19' E 033°33'817.5
2018-Aug-12 21:00N 34°21' E 033°23'917.5
2018-Aug-12 20:31N 34°23' E 033°13'8316.3
2018-Aug-12 15:24N 35°14' E 031°54'  
2018-Aug-07 18:41N 34°39' E 033°14'315.8
2018-Aug-07 18:30N 34°39' E 033°11'713.3
2018-Aug-07 18:01N 34°39' E 033°03'2 3.1
2018-Aug-07 17:31N 34°39' E 033°01'0 0.0
2018-Aug-07 16:58N 34°39' E 033°01'0 0.0
2018-Aug-07 16:25N 34°39' E 033°01'0 0.0
2018-Aug-07 15:58N 34°39' E 033°01'0 0.0
2018-Aug-07 15:28N 34°39' E 033°01'0 0.0
2018-Aug-07 14:58N 34°39' E 033°01'0 0.0
2018-Aug-07 14:28N 34°39' E 033°01'0 0.0
2018-Aug-07 13:58N 34°39' E 033°01'0 0.0
2018-Aug-07 13:28N 34°39' E 033°01'0 0.0
2018-Aug-07 12:58N 34°39' E 033°01'0 0.0
2018-Aug-07 12:28N 34°39' E 033°01'0 0.0
2018-Aug-07 11:58N 34°39' E 033°01'0 0.0
2018-Aug-07 11:28N 34°39' E 033°01'0 0.0
2018-Aug-07 10:58N 34°39' E 033°01'0 0.7
2018-Aug-07 10:30N 34°39' E 033°01'2 4.9
2018-Aug-07 10:00N 34°39' E 033°04'1 2.4
2018-Aug-07 09:30N 34°39' E 033°06'0 0.5
2018-Aug-07 09:01N 34°38' E 033°06'816.4
2018-Aug-07 08:30N 34°35' E 033°15'12 0.2
2018-Aug-05 09:28N 34°25' E 033°09'711.4
2018-Aug-05 08:53N 34°26' E 033°01'514.3
2018-Aug-05 08:31N 34°28' E 032°55'917.4
2018-Aug-05 08:01N 34°30' E 032°44'  

Dump ship's entire track history